createdAt,value
2019-02-16T00:12:18.777Z,94752.77
2019-02-16T00:27:51.859Z,94752.69
2019-02-16T00:43:25.284Z,94740.66
2019-02-16T00:58:58.965Z,94733.03
2019-02-16T01:14:32.936Z,94726.95
2019-02-16T01:30:06.284Z,94717.56
2019-02-16T01:45:39.725Z,94715.59
2019-02-16T02:01:12.657Z,94708.55
2019-02-16T02:16:45.826Z,94710.00
2019-02-16T02:32:18.850Z,94712.25
2019-02-16T02:47:52.158Z,94722.98
2019-02-16T03:03:25.162Z,94716.70
2019-02-16T03:18:58.797Z,94722.52
2019-02-16T03:34:42.370Z,94725.94
2019-02-16T03:50:15.693Z,94717.51
2019-02-16T04:05:48.879Z,94704.00
2019-02-16T04:21:22.146Z,94693.84
2019-02-16T04:36:55.065Z,94679.77
2019-02-16T04:52:34.271Z,94695.70
2019-02-16T05:08:02.973Z,94720.25
2019-02-16T05:23:35.940Z,94740.58
2019-02-16T05:39:09.082Z,94748.11
2019-02-16T05:54:41.874Z,94749.10
2019-02-16T06:10:15.081Z,94747.64
2019-02-16T06:25:48.138Z,94733.30
2019-02-16T06:41:20.941Z,94754.16
2019-02-16T06:57:01.089Z,94766.03
2019-02-16T07:12:33.996Z,94767.55
2019-02-16T07:28:06.809Z,94785.70
2019-02-16T07:43:48.068Z,94804.38
2019-02-16T07:59:24.415Z,94789.95
2019-02-16T08:31:12.624Z,94756.73
2019-02-16T08:47:02.563Z,94775.05
2019-02-16T09:02:39.590Z,94767.17
2019-02-16T09:18:16.868Z,94753.65
2019-02-16T09:34:08.305Z,94741.61
2019-02-16T09:49:48.792Z,94749.37
2019-02-16T10:21:38.593Z,94714.63
2019-02-16T10:53:38.995Z,94690.56
2019-02-16T11:09:35.514Z,94656.73
2019-02-16T11:25:11.647Z,94652.52
2019-02-16T11:40:50.573Z,94642.45
2019-02-16T11:56:29.793Z,94628.43
2019-02-16T12:12:07.805Z,94617.30
2019-02-16T13:00:10.031Z,94594.18
2019-02-16T13:15:47.259Z,94583.34
2019-02-16T13:31:24.423Z,94585.75
2019-02-16T13:47:04.665Z,94574.83
2019-02-16T14:02:41.349Z,94565.00
2019-02-16T14:18:14.534Z,94568.48
2019-02-16T14:33:47.547Z,94564.80
2019-02-16T14:49:20.856Z,94554.79
2019-02-16T15:04:54.578Z,94552.78
2019-02-16T15:20:30.989Z,94549.25
2019-02-16T15:36:04.180Z,94556.31
2019-02-16T15:51:37.397Z,94556.28
2019-02-16T16:07:12.277Z,94562.92
2019-02-16T16:22:50.540Z,94586.36
2019-02-16T16:38:27.761Z,94609.66
2019-02-16T16:54:03.872Z,94620.84
2019-02-16T17:09:44.077Z,94641.91
2019-02-16T17:25:18.891Z,94646.75
2019-02-16T17:40:54.958Z,94645.94
2019-02-16T17:56:31.113Z,94644.69
2019-02-16T18:12:07.235Z,94650.42
2019-02-16T18:27:45.768Z,94664.82
2019-02-16T18:59:41.127Z,94654.34
2019-02-16T19:15:30.212Z,94662.52
2019-02-16T19:31:07.434Z,94659.16
2019-02-16T19:46:47.006Z,94674.40
2019-02-16T20:18:34.980Z,94666.08
2019-02-16T20:34:12.380Z,94670.47
2019-02-16T20:49:58.747Z,94681.94
2019-02-16T21:05:41.000Z,94674.02
2019-02-16T21:21:19.022Z,94669.05
2019-02-16T21:36:57.314Z,94657.81
2019-02-16T21:52:37.521Z,94663.17
2019-02-16T22:08:31.854Z,94664.26
2019-02-16T22:24:05.086Z,94647.91
2019-02-16T22:39:38.166Z,94641.32
2019-02-16T22:55:11.501Z,94636.02
2019-02-16T23:10:44.250Z,94634.19
2019-02-16T23:26:17.488Z,94625.52
2019-02-16T23:41:50.902Z,94620.24
2019-02-16T23:57:23.883Z,94616.92
